Pepinster, Belgium
Current Conditions -  °F | °C
As of 11:20 AM on Monday 26 Jan 2015 (Local Time) from EBLG Reporting Station
Light Rain Light Rain  
Wind Chill: 30°   Ceiling: 300
Heat Index: 37°   Visibility: 1.8mi
Dew Point: 36°   Wind: 10mph
Humidity: 93%   Direction: 200°SSW
Pressure: 30.15"   Gusts: NA
Location:  50.57°N, 5.8°E
Report Text: EBLG 261020Z 20009KT 3000 -RADZ BR BKN003 BKN009 03/02 Q1021 TEMPO 1500 BR
Loading
Personal Weather Stations






























Interactive Weather Map New forecast layout! Learn more

10-Day Weather Forecast

Advertisements
Track Severe Weather on mobile